sensor_id;sensor_type;location;lat;lon;timestamp;P1;durP1;ratioP1;P2;durP2;ratioP2
26413;SDS011;14108;53.668;10.288;2022-07-17T00:01:33;6.55;;;2.50;;
26413;SDS011;14108;53.668;10.288;2022-07-17T00:04:00;5.53;;;2.25;;
26413;SDS011;14108;53.668;10.288;2022-07-17T00:06:28;6.60;;;1.98;;
26413;SDS011;14108;53.668;10.288;2022-07-17T00:08:55;10.13;;;2.50;;
26413;SDS011;14108;53.668;10.288;2022-07-17T00:11:23;8.68;;;2.25;;
26413;SDS011;14108;53.668;10.288;2022-07-17T00:13:51;7.32;;;2.62;;
26413;SDS011;14108;53.668;10.288;2022-07-17T00:16:19;8.70;;;2.55;;
26413;SDS011;14108;53.668;10.288;2022-07-17T00:18:46;6.18;;;1.92;;
26413;SDS011;14108;53.668;10.288;2022-07-17T00:21:14;4.72;;;2.00;;
26413;SDS011;14108;53.668;10.288;2022-07-17T00:23:41;8.73;;;2.28;;
26413;SDS011;14108;53.668;10.288;2022-07-17T00:26:09;6.93;;;2.17;;
26413;SDS011;14108;53.668;10.288;2022-07-17T00:28:36;7.57;;;2.47;;
26413;SDS011;14108;53.668;10.288;2022-07-17T00:31:04;6.82;;;3.33;;
26413;SDS011;14108;53.668;10.288;2022-07-17T00:33:31;10.02;;;4.65;;
26413;SDS011;14108;53.668;10.288;2022-07-17T00:35:59;9.75;;;5.65;;
26413;SDS011;14108;53.668;10.288;2022-07-17T00:38:27;11.43;;;5.03;;
26413;SDS011;14108;53.668;10.288;2022-07-17T00:40:54;8.27;;;3.45;;
26413;SDS011;14108;53.668;10.288;2022-07-17T00:43:23;11.35;;;2.70;;
26413;SDS011;14108;53.668;10.288;2022-07-17T00:45:54;6.95;;;2.53;;
26413;SDS011;14108;53.668;10.288;2022-07-17T00:48:23;4.05;;;2.30;;
26413;SDS011;14108;53.668;10.288;2022-07-17T00:50:51;9.18;;;3.00;;
26413;SDS011;14108;53.668;10.288;2022-07-17T00:53:19;7.03;;;2.37;;
26413;SDS011;14108;53.668;10.288;2022-07-17T00:55:47;7.32;;;2.60;;
26413;SDS011;14108;53.668;10.288;2022-07-17T00:58:24;6.95;;;2.42;;
26413;SDS011;14108;53.668;10.288;2022-07-17T01:00:53;7.57;;;2.65;;
26413;SDS011;14108;53.668;10.288;2022-07-17T01:03:23;8.48;;;2.35;;
26413;SDS011;14108;53.668;10.288;2022-07-17T01:05:51;9.07;;;2.30;;
26413;SDS011;14108;53.668;10.288;2022-07-17T01:08:18;7.60;;;2.35;;
26413;SDS011;14108;53.668;10.288;2022-07-17T01:10:46;8.25;;;2.30;;
26413;SDS011;14108;53.668;10.288;2022-07-17T01:13:13;3.97;;;2.00;;
26413;SDS011;14108;53.668;10.288;2022-07-17T01:15:41;3.55;;;2.08;;
26413;SDS011;14108;53.668;10.288;2022-07-17T01:18:10;4.70;;;1.83;;
26413;SDS011;14108;53.668;10.288;2022-07-17T01:20:40;8.68;;;2.45;;
26413;SDS011;14108;53.668;10.288;2022-07-17T01:23:08;6.32;;;2.30;;
26413;SDS011;14108;53.668;10.288;2022-07-17T01:25:36;8.30;;;2.72;;
26413;SDS011;14108;53.668;10.288;2022-07-17T01:28:04;7.37;;;2.40;;
26413;SDS011;14108;53.668;10.288;2022-07-17T01:30:33;5.05;;;2.50;;
26413;SDS011;14108;53.668;10.288;2022-07-17T01:33:01;8.98;;;2.67;;
26413;SDS011;14108;53.668;10.288;2022-07-17T01:35:29;17.30;;;2.60;;
26413;SDS011;14108;53.668;10.288;2022-07-17T01:37:56;4.90;;;2.17;;
26413;SDS011;14108;53.668;10.288;2022-07-17T01:40:23;7.00;;;2.60;;
26413;SDS011;14108;53.668;10.288;2022-07-17T01:42:51;10.07;;;4.25;;
26413;SDS011;14108;53.668;10.288;2022-07-17T01:45:18;6.25;;;2.42;;
26413;SDS011;14108;53.668;10.288;2022-07-17T01:47:46;6.22;;;2.20;;
26413;SDS011;14108;53.668;10.288;2022-07-17T01:50:14;8.57;;;2.40;;
26413;SDS011;14108;53.668;10.288;2022-07-17T01:52:42;8.18;;;2.30;;
26413;SDS011;14108;53.668;10.288;2022-07-17T01:55:11;3.47;;;2.30;;
26413;SDS011;14108;53.668;10.288;2022-07-17T01:57:40;10.00;;;2.97;;
26413;SDS011;14108;53.668;10.288;2022-07-17T02:00:10;9.77;;;2.30;;
26413;SDS011;14108;53.668;10.288;2022-07-17T02:02:40;7.43;;;3.25;;
26413;SDS011;14108;53.668;10.288;2022-07-17T02:05:08;6.15;;;2.50;;
26413;SDS011;14108;53.668;10.288;2022-07-17T02:07:35;9.13;;;2.47;;
26413;SDS011;14108;53.668;10.288;2022-07-17T02:10:07;6.68;;;2.40;;
26413;SDS011;14108;53.668;10.288;2022-07-17T02:12:35;5.87;;;2.15;;
26413;SDS011;14108;53.668;10.288;2022-07-17T02:15:03;9.80;;;2.83;;
26413;SDS011;14108;53.668;10.288;2022-07-17T02:17:32;7.10;;;2.85;;
26413;SDS011;14108;53.668;10.288;2022-07-17T02:20:00;8.23;;;2.45;;
26413;SDS011;14108;53.668;10.288;2022-07-17T02:22:27;9.55;;;2.42;;
26413;SDS011;14108;53.668;10.288;2022-07-17T02:24:55;9.35;;;2.37;;
26413;SDS011;14108;53.668;10.288;2022-07-17T02:27:22;4.47;;;2.22;;
26413;SDS011;14108;53.668;10.288;2022-07-17T02:29:50;8.32;;;2.17;;
26413;SDS011;14108;53.668;10.288;2022-07-17T02:32:17;2.70;;;2.00;;
26413;SDS011;14108;53.668;10.288;2022-07-17T02:34:45;5.22;;;1.87;;
26413;SDS011;14108;53.668;10.288;2022-07-17T02:37:12;5.37;;;2.00;;
26413;SDS011;14108;53.668;10.288;2022-07-17T02:39:39;9.77;;;2.50;;
26413;SDS011;14108;53.668;10.288;2022-07-17T02:42:18;5.07;;;2.10;;
26413;SDS011;14108;53.668;10.288;2022-07-17T02:44:47;8.57;;;2.30;;
26413;SDS011;14108;53.668;10.288;2022-07-17T02:47:19;7.53;;;2.37;;
26413;SDS011;14108;53.668;10.288;2022-07-17T02:49:48;8.25;;;2.12;;
26413;SDS011;14108;53.668;10.288;2022-07-17T02:52:15;4.82;;;1.92;;
26413;SDS011;14108;53.668;10.288;2022-07-17T02:54:43;6.50;;;2.80;;
26413;SDS011;14108;53.668;10.288;2022-07-17T02:57:10;6.20;;;2.42;;
26413;SDS011;14108;53.668;10.288;2022-07-17T02:59:38;6.50;;;2.72;;
26413;SDS011;14108;53.668;10.288;2022-07-17T03:02:06;5.70;;;2.47;;
26413;SDS011;14108;53.668;10.288;2022-07-17T03:04:33;6.05;;;2.30;;
26413;SDS011;14108;53.668;10.288;2022-07-17T03:07:01;8.57;;;2.33;;
26413;SDS011;14108;53.668;10.288;2022-07-17T03:09:28;10.75;;;2.42;;
26413;SDS011;14108;53.668;10.288;2022-07-17T03:11:56;6.87;;;2.42;;
26413;SDS011;14108;53.668;10.288;2022-07-17T03:14:23;8.23;;;2.50;;
26413;SDS011;14108;53.668;10.288;2022-07-17T03:16:50;7.60;;;2.78;;
26413;SDS011;14108;53.668;10.288;2022-07-17T03:19:18;6.90;;;2.58;;
26413;SDS011;14108;53.668;10.288;2022-07-17T03:21:45;7.87;;;2.37;;
26413;SDS011;14108;53.668;10.288;2022-07-17T03:24:13;5.75;;;2.50;;
26413;SDS011;14108;53.668;10.288;2022-07-17T03:26:40;4.97;;;2.30;;
26413;SDS011;14108;53.668;10.288;2022-07-17T03:29:07;7.00;;;2.22;;
26413;SDS011;14108;53.668;10.288;2022-07-17T03:31:35;7.90;;;2.87;;
26413;SDS011;14108;53.668;10.288;2022-07-17T03:34:02;5.28;;;2.25;;
26413;SDS011;14108;53.668;10.288;2022-07-17T03:36:29;9.98;;;2.40;;
26413;SDS011;14108;53.668;10.288;2022-07-17T03:38:57;5.75;;;2.67;;
26413;SDS011;14108;53.668;10.288;2022-07-17T03:41:24;6.15;;;2.42;;
26413;SDS011;14108;53.668;10.288;2022-07-17T03:43:52;9.35;;;2.55;;
26413;SDS011;14108;53.668;10.288;2022-07-17T03:46:20;9.07;;;2.70;;
26413;SDS011;14108;53.668;10.288;2022-07-17T03:48:47;6.35;;;2.20;;
26413;SDS011;14108;53.668;10.288;2022-07-17T03:51:15;6.97;;;2.30;;
26413;SDS011;14108;53.668;10.288;2022-07-17T03:53:43;8.02;;;2.50;;
26413;SDS011;14108;53.668;10.288;2022-07-17T03:56:10;8.75;;;2.20;;
26413;SDS011;14108;53.668;10.288;2022-07-17T03:58:37;4.47;;;2.08;;
26413;SDS011;14108;53.668;10.288;2022-07-17T04:01:05;5.82;;;2.10;;
26413;SDS011;14108;53.668;10.288;2022-07-17T04:03:32;7.68;;;2.03;;
26413;SDS011;14108;53.668;10.288;2022-07-17T04:06:00;6.43;;;2.30;;
26413;SDS011;14108;53.668;10.288;2022-07-17T04:08:28;7.22;;;2.58;;
26413;SDS011;14108;53.668;10.288;2022-07-17T04:10:56;5.15;;;2.25;;
26413;SDS011;14108;53.668;10.288;2022-07-17T04:13:23;10.30;;;2.40;;
26413;SDS011;14108;53.668;10.288;2022-07-17T04:15:51;5.68;;;2.37;;
26413;SDS011;14108;53.668;10.288;2022-07-17T04:18:19;6.55;;;2.50;;
26413;SDS011;14108;53.668;10.288;2022-07-17T04:20:46;6.10;;;1.83;;
26413;SDS011;14108;53.668;10.288;2022-07-17T04:23:14;9.23;;;2.97;;
26413;SDS011;14108;53.668;10.288;2022-07-17T04:25:42;8.50;;;2.30;;
26413;SDS011;14108;53.668;10.288;2022-07-17T04:28:10;9.57;;;2.12;;
26413;SDS011;14108;53.668;10.288;2022-07-17T04:30:38;4.85;;;2.03;;
26413;SDS011;14108;53.668;10.288;2022-07-17T04:33:06;6.03;;;1.98;;
26413;SDS011;14108;53.668;10.288;2022-07-17T04:35:34;8.40;;;2.15;;
26413;SDS011;14108;53.668;10.288;2022-07-17T04:38:03;5.53;;;2.28;;
26413;SDS011;14108;53.668;10.288;2022-07-17T04:40:32;6.45;;;2.40;;
26413;SDS011;14108;53.668;10.288;2022-07-17T04:43:00;6.30;;;2.28;;
26413;SDS011;14108;53.668;10.288;2022-07-17T04:45:27;4.85;;;1.90;;
26413;SDS011;14108;53.668;10.288;2022-07-17T04:47:55;6.97;;;1.75;;
26413;SDS011;14108;53.668;10.288;2022-07-17T04:50:23;5.03;;;1.75;;
26413;SDS011;14108;53.668;10.288;2022-07-17T04:52:51;3.72;;;2.00;;
26413;SDS011;14108;53.668;10.288;2022-07-17T04:55:18;6.20;;;2.37;;
26413;SDS011;14108;53.668;10.288;2022-07-17T04:57:46;5.03;;;1.85;;
26413;SDS011;14108;53.668;10.288;2022-07-17T05:00:14;6.70;;;2.12;;
26413;SDS011;14108;53.668;10.288;2022-07-17T05:02:42;4.90;;;1.90;;
26413;SDS011;14108;53.668;10.288;2022-07-17T05:05:09;7.12;;;2.03;;
26413;SDS011;14108;53.668;10.288;2022-07-17T05:07:37;4.60;;;1.90;;
26413;SDS011;14108;53.668;10.288;2022-07-17T05:10:05;5.70;;;2.00;;
26413;SDS011;14108;53.668;10.288;2022-07-17T05:12:34;4.55;;;1.70;;
26413;SDS011;14108;53.668;10.288;2022-07-17T05:15:02;7.28;;;1.98;;
26413;SDS011;14108;53.668;10.288;2022-07-17T05:17:31;6.10;;;2.10;;
26413;SDS011;14108;53.668;10.288;2022-07-17T05:19:58;5.30;;;1.80;;
26413;SDS011;14108;53.668;10.288;2022-07-17T05:22:25;5.15;;;2.12;;
26413;SDS011;14108;53.668;10.288;2022-07-17T05:24:53;6.80;;;1.80;;
26413;SDS011;14108;53.668;10.288;2022-07-17T05:27:27;6.03;;;2.10;;
26413;SDS011;14108;53.668;10.288;2022-07-17T05:29:54;6.25;;;2.05;;
26413;SDS011;14108;53.668;10.288;2022-07-17T05:32:22;6.35;;;2.10;;
26413;SDS011;14108;53.668;10.288;2022-07-17T05:34:49;3.03;;;1.48;;
26413;SDS011;14108;53.668;10.288;2022-07-17T05:37:16;6.87;;;1.75;;
26413;SDS011;14108;53.668;10.288;2022-07-17T05:39:44;5.25;;;1.90;;
26413;SDS011;14108;53.668;10.288;2022-07-17T05:42:11;9.65;;;2.35;;
26413;SDS011;14108;53.668;10.288;2022-07-17T05:44:38;7.47;;;1.80;;
26413;SDS011;14108;53.668;10.288;2022-07-17T05:47:06;4.93;;;1.80;;
26413;SDS011;14108;53.668;10.288;2022-07-17T05:49:33;5.35;;;2.00;;
26413;SDS011;14108;53.668;10.288;2022-07-17T05:52:00;9.70;;;3.25;;
26413;SDS011;14108;53.668;10.288;2022-07-17T05:54:28;4.47;;;1.65;;
26413;SDS011;14108;53.668;10.288;2022-07-17T05:56:55;6.95;;;1.75;;
26413;SDS011;14108;53.668;10.288;2022-07-17T05:59:23;5.70;;;1.73;;
26413;SDS011;14108;53.668;10.288;2022-07-17T06:01:50;8.95;;;1.83;;
26413;SDS011;14108;53.668;10.288;2022-07-17T06:07:39;5.28;;;1.35;;
26413;SDS011;14108;53.668;10.288;2022-07-17T06:10:08;5.22;;;1.80;;
26413;SDS011;14108;53.668;10.288;2022-07-17T06:12:36;5.45;;;1.55;;
26413;SDS011;14108;53.668;10.288;2022-07-17T06:15:04;4.30;;;1.73;;
26413;SDS011;14108;53.668;10.288;2022-07-17T06:17:33;3.95;;;1.50;;
26413;SDS011;14108;53.668;10.288;2022-07-17T06:20:00;4.80;;;1.70;;
26413;SDS011;14108;53.668;10.288;2022-07-17T06:22:28;3.47;;;1.90;;
26413;SDS011;14108;53.668;10.288;2022-07-17T06:24:55;6.35;;;1.92;;
26413;SDS011;14108;53.668;10.288;2022-07-17T06:27:23;6.68;;;2.40;;
26413;SDS011;14108;53.668;10.288;2022-07-17T06:29:50;8.65;;;2.05;;
26413;SDS011;14108;53.668;10.288;2022-07-17T06:32:18;5.90;;;1.60;;
26413;SDS011;14108;53.668;10.288;2022-07-17T06:34:45;4.30;;;1.65;;
26413;SDS011;14108;53.668;10.288;2022-07-17T06:37:12;5.87;;;1.83;;
26413;SDS011;14108;53.668;10.288;2022-07-17T06:39:40;3.15;;;1.33;;
26413;SDS011;14108;53.668;10.288;2022-07-17T06:42:07;3.58;;;1.80;;
26413;SDS011;14108;53.668;10.288;2022-07-17T06:44:36;5.90;;;1.52;;
26413;SDS011;14108;53.668;10.288;2022-07-17T06:47:03;6.87;;;1.70;;
26413;SDS011;14108;53.668;10.288;2022-07-17T06:49:31;12.20;;;2.22;;
26413;SDS011;14108;53.668;10.288;2022-07-17T06:51:58;6.40;;;1.60;;
26413;SDS011;14108;53.668;10.288;2022-07-17T06:54:25;3.20;;;1.55;;
26413;SDS011;14108;53.668;10.288;2022-07-17T06:56:53;6.50;;;1.55;;
26413;SDS011;14108;53.668;10.288;2022-07-17T06:59:20;4.95;;;1.52;;
26413;SDS011;14108;53.668;10.288;2022-07-17T07:01:48;6.57;;;2.12;;
26413;SDS011;14108;53.668;10.288;2022-07-17T07:04:15;6.12;;;1.90;;
26413;SDS011;14108;53.668;10.288;2022-07-17T07:06:43;4.10;;;1.58;;
26413;SDS011;14108;53.668;10.288;2022-07-17T07:09:10;6.43;;;1.70;;
26413;SDS011;14108;53.668;10.288;2022-07-17T07:11:37;6.47;;;1.50;;
26413;SDS011;14108;53.668;10.288;2022-07-17T07:14:05;5.18;;;1.65;;
26413;SDS011;14108;53.668;10.288;2022-07-17T07:16:32;4.07;;;1.77;;
26413;SDS011;14108;53.668;10.288;2022-07-17T07:19:00;5.10;;;1.48;;
26413;SDS011;14108;53.668;10.288;2022-07-17T07:21:28;4.62;;;1.67;;
26413;SDS011;14108;53.668;10.288;2022-07-17T07:23:55;3.28;;;1.40;;
26413;SDS011;14108;53.668;10.288;2022-07-17T07:26:23;3.67;;;1.45;;
26413;SDS011;14108;53.668;10.288;2022-07-17T07:28:50;6.95;;;2.22;;
26413;SDS011;14108;53.668;10.288;2022-07-17T07:31:18;9.15;;;2.45;;
26413;SDS011;14108;53.668;10.288;2022-07-17T07:33:45;2.30;;;1.45;;
26413;SDS011;14108;53.668;10.288;2022-07-17T07:36:13;5.35;;;2.15;;
26413;SDS011;14108;53.668;10.288;2022-07-17T07:38:40;3.33;;;1.27;;
26413;SDS011;14108;53.668;10.288;2022-07-17T07:41:08;5.65;;;1.70;;
26413;SDS011;14108;53.668;10.288;2022-07-17T07:43:35;4.62;;;1.62;;
26413;SDS011;14108;53.668;10.288;2022-07-17T07:46:02;4.12;;;1.35;;
26413;SDS011;14108;53.668;10.288;2022-07-17T07:48:30;9.27;;;1.70;;
26413;SDS011;14108;53.668;10.288;2022-07-17T07:50:58;1.83;;;1.40;;
26413;SDS011;14108;53.668;10.288;2022-07-17T07:53:25;6.15;;;1.70;;
26413;SDS011;14108;53.668;10.288;2022-07-17T07:55:53;6.80;;;1.77;;
26413;SDS011;14108;53.668;10.288;2022-07-17T07:58:20;3.72;;;1.80;;
26413;SDS011;14108;53.668;10.288;2022-07-17T08:00:47;6.15;;;2.10;;
26413;SDS011;14108;53.668;10.288;2022-07-17T08:03:15;4.97;;;1.62;;
26413;SDS011;14108;53.668;10.288;2022-07-17T08:05:42;5.95;;;1.77;;
26413;SDS011;14108;53.668;10.288;2022-07-17T08:08:10;6.40;;;1.50;;
26413;SDS011;14108;53.668;10.288;2022-07-17T08:10:37;5.70;;;1.95;;
26413;SDS011;14108;53.668;10.288;2022-07-17T08:13:05;6.05;;;1.50;;
26413;SDS011;14108;53.668;10.288;2022-07-17T08:15:32;5.40;;;2.10;;
26413;SDS011;14108;53.668;10.288;2022-07-17T08:18:00;4.60;;;1.33;;
26413;SDS011;14108;53.668;10.288;2022-07-17T08:20:27;10.98;;;1.62;;
26413;SDS011;14108;53.668;10.288;2022-07-17T08:22:55;9.32;;;2.15;;
26413;SDS011;14108;53.668;10.288;2022-07-17T08:25:22;7.15;;;1.52;;
26413;SDS011;14108;53.668;10.288;2022-07-17T08:27:50;4.50;;;2.00;;
26413;SDS011;14108;53.668;10.288;2022-07-17T08:30:17;5.82;;;1.87;;
26413;SDS011;14108;53.668;10.288;2022-07-17T08:32:55;4.72;;;1.85;;
26413;SDS011;14108;53.668;10.288;2022-07-17T08:35:22;4.40;;;1.50;;
26413;SDS011;14108;53.668;10.288;2022-07-17T08:37:50;5.85;;;1.90;;
26413;SDS011;14108;53.668;10.288;2022-07-17T08:40:19;4.32;;;1.50;;
26413;SDS011;14108;53.668;10.288;2022-07-17T08:42:48;4.68;;;1.58;;
26413;SDS011;14108;53.668;10.288;2022-07-17T08:45:16;6.47;;;1.75;;
26413;SDS011;14108;53.668;10.288;2022-07-17T08:47:44;5.75;;;1.70;;
26413;SDS011;14108;53.668;10.288;2022-07-17T08:50:12;3.05;;;1.30;;
26413;SDS011;14108;53.668;10.288;2022-07-17T08:52:40;6.10;;;1.73;;
26413;SDS011;14108;53.668;10.288;2022-07-17T08:55:09;4.53;;;1.70;;
26413;SDS011;14108;53.668;10.288;2022-07-17T08:57:38;6.12;;;1.75;;
26413;SDS011;14108;53.668;10.288;2022-07-17T09:00:09;2.35;;;1.20;;
26413;SDS011;14108;53.668;10.288;2022-07-17T09:02:38;4.55;;;1.67;;
26413;SDS011;14108;53.668;10.288;2022-07-17T09:05:07;4.22;;;1.65;;
26413;SDS011;14108;53.668;10.288;2022-07-17T09:07:45;2.42;;;1.23;;
26413;SDS011;14108;53.668;10.288;2022-07-17T09:10:12;5.35;;;1.95;;
26413;SDS011;14108;53.668;10.288;2022-07-17T09:12:40;7.18;;;1.95;;
26413;SDS011;14108;53.668;10.288;2022-07-17T09:15:15;5.00;;;1.67;;
26413;SDS011;14108;53.668;10.288;2022-07-17T09:17:49;5.87;;;1.50;;
26413;SDS011;14108;53.668;10.288;2022-07-17T09:20:17;5.68;;;1.67;;
26413;SDS011;14108;53.668;10.288;2022-07-17T09:22:45;4.40;;;1.60;;
26413;SDS011;14108;53.668;10.288;2022-07-17T09:25:31;8.75;;;1.95;;
26413;SDS011;14108;53.668;10.288;2022-07-17T09:28:03;5.72;;;1.60;;
26413;SDS011;14108;53.668;10.288;2022-07-17T09:30:31;6.75;;;1.50;;
26413;SDS011;14108;53.668;10.288;2022-07-17T09:33:00;5.43;;;1.50;;
26413;SDS011;14108;53.668;10.288;2022-07-17T09:35:27;5.78;;;2.35;;
26413;SDS011;14108;53.668;10.288;2022-07-17T09:37:55;3.00;;;1.33;;
26413;SDS011;14108;53.668;10.288;2022-07-17T09:40:23;6.25;;;1.58;;
26413;SDS011;14108;53.668;10.288;2022-07-17T09:43:08;4.60;;;1.95;;
26413;SDS011;14108;53.668;10.288;2022-07-17T09:45:36;3.45;;;1.20;;
26413;SDS011;14108;53.668;10.288;2022-07-17T09:48:03;6.55;;;2.00;;
26413;SDS011;14108;53.668;10.288;2022-07-17T09:50:33;7.72;;;1.40;;
26413;SDS011;14108;53.668;10.288;2022-07-17T09:53:01;4.72;;;1.50;;
26413;SDS011;14108;53.668;10.288;2022-07-17T09:55:30;4.20;;;1.27;;
26413;SDS011;14108;53.668;10.288;2022-07-17T09:57:59;4.45;;;1.20;;
26413;SDS011;14108;53.668;10.288;2022-07-17T10:00:28;4.87;;;1.37;;
26413;SDS011;14108;53.668;10.288;2022-07-17T10:02:56;6.07;;;1.77;;
26413;SDS011;14108;53.668;10.288;2022-07-17T10:05:24;2.75;;;1.37;;
26413;SDS011;14108;53.668;10.288;2022-07-17T10:07:52;3.83;;;1.40;;
26413;SDS011;14108;53.668;10.288;2022-07-17T10:10:20;4.50;;;1.23;;
26413;SDS011;14108;53.668;10.288;2022-07-17T10:12:48;6.22;;;1.87;;
26413;SDS011;14108;53.668;10.288;2022-07-17T10:15:17;6.53;;;1.67;;
26413;SDS011;14108;53.668;10.288;2022-07-17T10:17:49;4.75;;;1.40;;
26413;SDS011;14108;53.668;10.288;2022-07-17T10:20:23;5.35;;;1.55;;
26413;SDS011;14108;53.668;10.288;2022-07-17T10:22:52;7.25;;;1.85;;
26413;SDS011;14108;53.668;10.288;2022-07-17T10:25:19;7.35;;;1.90;;
26413;SDS011;14108;53.668;10.288;2022-07-17T10:27:47;4.37;;;1.60;;
26413;SDS011;14108;53.668;10.288;2022-07-17T10:30:19;5.15;;;1.37;;
26413;SDS011;14108;53.668;10.288;2022-07-17T10:35:40;5.35;;;1.50;;
26413;SDS011;14108;53.668;10.288;2022-07-17T10:38:11;2.25;;;1.23;;
26413;SDS011;14108;53.668;10.288;2022-07-17T10:40:41;4.37;;;1.30;;
26413;SDS011;14108;53.668;10.288;2022-07-17T10:46:07;8.07;;;2.33;;
26413;SDS011;14108;53.668;10.288;2022-07-17T10:48:34;5.93;;;1.37;;
26413;SDS011;14108;53.668;10.288;2022-07-17T10:51:05;3.28;;;1.23;;
26413;SDS011;14108;53.668;10.288;2022-07-17T10:53:33;4.00;;;1.20;;
26413;SDS011;14108;53.668;10.288;2022-07-17T10:56:02;6.45;;;1.60;;
26413;SDS011;14108;53.668;10.288;2022-07-17T10:58:31;4.68;;;1.33;;
26413;SDS011;14108;53.668;10.288;2022-07-17T11:01:01;5.60;;;2.45;;
26413;SDS011;14108;53.668;10.288;2022-07-17T11:03:38;4.78;;;1.33;;
26413;SDS011;14108;53.668;10.288;2022-07-17T11:06:09;6.62;;;1.62;;
26413;SDS011;14108;53.668;10.288;2022-07-17T11:08:43;3.53;;;1.30;;
26413;SDS011;14108;53.668;10.288;2022-07-17T11:11:14;5.80;;;2.37;;
26413;SDS011;14108;53.668;10.288;2022-07-17T11:13:42;4.55;;;1.50;;
26413;SDS011;14108;53.668;10.288;2022-07-17T11:16:09;4.00;;;1.55;;
26413;SDS011;14108;53.668;10.288;2022-07-17T11:18:45;2.72;;;1.23;;
26413;SDS011;14108;53.668;10.288;2022-07-17T11:21:13;4.20;;;1.12;;
26413;SDS011;14108;53.668;10.288;2022-07-17T11:23:49;4.53;;;1.70;;
26413;SDS011;14108;53.668;10.288;2022-07-17T11:26:18;5.37;;;1.40;;
26413;SDS011;14108;53.668;10.288;2022-07-17T11:28:47;6.10;;;1.45;;
26413;SDS011;14108;53.668;10.288;2022-07-17T11:31:16;3.75;;;1.08;;
26413;SDS011;14108;53.668;10.288;2022-07-17T11:36:26;4.20;;;1.30;;
26413;SDS011;14108;53.668;10.288;2022-07-17T11:38:56;4.70;;;1.27;;
26413;SDS011;14108;53.668;10.288;2022-07-17T11:41:32;3.40;;;1.00;;
26413;SDS011;14108;53.668;10.288;2022-07-17T11:44:01;3.00;;;1.30;;
26413;SDS011;14108;53.668;10.288;2022-07-17T11:46:29;3.80;;;1.30;;
26413;SDS011;14108;53.668;10.288;2022-07-17T11:48:59;3.45;;;1.55;;
26413;SDS011;14108;53.668;10.288;2022-07-17T11:51:33;2.53;;;1.10;;
26413;SDS011;14108;53.668;10.288;2022-07-17T11:54:13;1.87;;;1.10;;
26413;SDS011;14108;53.668;10.288;2022-07-17T11:56:42;3.53;;;1.30;;
26413;SDS011;14108;53.668;10.288;2022-07-17T11:59:23;5.37;;;1.27;;
26413;SDS011;14108;53.668;10.288;2022-07-17T12:01:52;2.87;;;1.25;;
26413;SDS011;14108;53.668;10.288;2022-07-17T12:04:19;4.35;;;1.33;;
26413;SDS011;14108;53.668;10.288;2022-07-17T12:06:57;4.15;;;1.40;;
26413;SDS011;14108;53.668;10.288;2022-07-17T12:09:26;3.30;;;1.15;;
26413;SDS011;14108;53.668;10.288;2022-07-17T12:11:55;3.87;;;1.23;;
26413;SDS011;14108;53.668;10.288;2022-07-17T12:14:22;3.40;;;1.10;;
26413;SDS011;14108;53.668;10.288;2022-07-17T12:16:49;2.08;;;1.15;;
26413;SDS011;14108;53.668;10.288;2022-07-17T12:19:18;3.87;;;1.10;;
26413;SDS011;14108;53.668;10.288;2022-07-17T12:21:51;7.07;;;1.50;;
26413;SDS011;14108;53.668;10.288;2022-07-17T12:24:21;4.28;;;1.25;;
26413;SDS011;14108;53.668;10.288;2022-07-17T12:26:51;4.65;;;1.20;;
26413;SDS011;14108;53.668;10.288;2022-07-17T12:29:19;4.93;;;1.83;;
26413;SDS011;14108;53.668;10.288;2022-07-17T12:31:46;4.25;;;1.30;;
26413;SDS011;14108;53.668;10.288;2022-07-17T12:34:14;4.87;;;1.10;;
26413;SDS011;14108;53.668;10.288;2022-07-17T12:36:41;2.78;;;1.08;;
26413;SDS011;14108;53.668;10.288;2022-07-17T12:39:09;3.87;;;1.30;;
26413;SDS011;14108;53.668;10.288;2022-07-17T12:41:36;1.83;;;1.00;;
26413;SDS011;14108;53.668;10.288;2022-07-17T12:44:04;3.25;;;1.02;;
26413;SDS011;14108;53.668;10.288;2022-07-17T12:46:40;1.45;;;0.95;;
26413;SDS011;14108;53.668;10.288;2022-07-17T12:49:07;3.35;;;1.10;;
26413;SDS011;14108;53.668;10.288;2022-07-17T12:51:35;3.33;;;1.40;;
26413;SDS011;14108;53.668;10.288;2022-07-17T12:54:02;5.55;;;1.20;;
26413;SDS011;14108;53.668;10.288;2022-07-17T12:56:30;3.05;;;1.10;;
26413;SDS011;14108;53.668;10.288;2022-07-17T12:58:57;3.65;;;1.10;;
26413;SDS011;14108;53.668;10.288;2022-07-17T13:01:25;2.97;;;1.20;;
26413;SDS011;14108;53.668;10.288;2022-07-17T13:03:53;5.03;;;1.42;;
26413;SDS011;14108;53.668;10.288;2022-07-17T13:06:20;5.22;;;1.10;;
26413;SDS011;14108;53.668;10.288;2022-07-17T13:08:47;3.78;;;1.30;;
26413;SDS011;14108;53.668;10.288;2022-07-17T13:11:15;2.80;;;1.27;;
26413;SDS011;14108;53.668;10.288;2022-07-17T13:13:42;2.30;;;0.90;;
26413;SDS011;14108;53.668;10.288;2022-07-17T13:16:10;2.90;;;1.08;;
26413;SDS011;14108;53.668;10.288;2022-07-17T13:18:38;1.05;;;0.80;;
26413;SDS011;14108;53.668;10.288;2022-07-17T13:21:05;3.85;;;1.10;;
26413;SDS011;14108;53.668;10.288;2022-07-17T13:23:33;1.92;;;1.00;;
26413;SDS011;14108;53.668;10.288;2022-07-17T13:26:00;3.12;;;1.00;;
26413;SDS011;14108;53.668;10.288;2022-07-17T13:28:28;3.72;;;1.08;;
26413;SDS011;14108;53.668;10.288;2022-07-17T13:30:56;2.72;;;1.10;;
26413;SDS011;14108;53.668;10.288;2022-07-17T13:33:24;3.33;;;1.12;;
26413;SDS011;14108;53.668;10.288;2022-07-17T13:36:00;4.47;;;1.17;;
26413;SDS011;14108;53.668;10.288;2022-07-17T13:38:27;6.32;;;1.20;;
26413;SDS011;14108;53.668;10.288;2022-07-17T13:40:55;3.00;;;1.20;;
26413;SDS011;14108;53.668;10.288;2022-07-17T13:43:22;2.78;;;1.20;;
26413;SDS011;14108;53.668;10.288;2022-07-17T13:45:50;2.30;;;1.10;;
26413;SDS011;14108;53.668;10.288;2022-07-17T13:48:17;3.65;;;1.40;;
26413;SDS011;14108;53.668;10.288;2022-07-17T13:50:44;3.22;;;1.30;;
26413;SDS011;14108;53.668;10.288;2022-07-17T13:53:12;3.97;;;1.30;;
26413;SDS011;14108;53.668;10.288;2022-07-17T13:55:39;2.05;;;1.00;;
26413;SDS011;14108;53.668;10.288;2022-07-17T13:58:06;2.85;;;1.10;;
26413;SDS011;14108;53.668;10.288;2022-07-17T14:00:34;2.90;;;1.00;;
26413;SDS011;14108;53.668;10.288;2022-07-17T14:03:01;2.70;;;0.98;;
26413;SDS011;14108;53.668;10.288;2022-07-17T14:05:29;2.17;;;1.00;;
26413;SDS011;14108;53.668;10.288;2022-07-17T14:07:56;2.85;;;1.10;;
26413;SDS011;14108;53.668;10.288;2022-07-17T14:10:24;2.47;;;1.05;;
26413;SDS011;14108;53.668;10.288;2022-07-17T14:12:51;3.33;;;1.02;;
26413;SDS011;14108;53.668;10.288;2022-07-17T14:15:18;2.67;;;1.30;;
26413;SDS011;14108;53.668;10.288;2022-07-17T14:17:46;1.37;;;0.93;;
26413;SDS011;14108;53.668;10.288;2022-07-17T14:20:13;3.87;;;1.40;;
26413;SDS011;14108;53.668;10.288;2022-07-17T14:22:40;1.48;;;0.85;;
26413;SDS011;14108;53.668;10.288;2022-07-17T14:25:08;2.17;;;0.95;;
26413;SDS011;14108;53.668;10.288;2022-07-17T14:27:36;1.37;;;0.93;;
26413;SDS011;14108;53.668;10.288;2022-07-17T14:30:04;3.37;;;1.00;;
26413;SDS011;14108;53.668;10.288;2022-07-17T14:32:32;2.70;;;1.10;;
26413;SDS011;14108;53.668;10.288;2022-07-17T14:35:00;2.30;;;1.23;;
26413;SDS011;14108;53.668;10.288;2022-07-17T14:37:27;2.30;;;1.00;;
26413;SDS011;14108;53.668;10.288;2022-07-17T14:39:55;2.17;;;1.30;;
26413;SDS011;14108;53.668;10.288;2022-07-17T14:42:22;2.47;;;1.33;;
26413;SDS011;14108;53.668;10.288;2022-07-17T14:44:50;4.37;;;1.30;;
26413;SDS011;14108;53.668;10.288;2022-07-17T14:47:18;3.55;;;1.10;;
26413;SDS011;14108;53.668;10.288;2022-07-17T14:49:45;2.20;;;1.10;;
26413;SDS011;14108;53.668;10.288;2022-07-17T14:52:12;4.90;;;1.30;;